Locust Hill, Virginia
Current Conditions -  °F | °C
As of 7:15 AM on Monday 20 Oct 2014 (Local Time) from KW75 Reporting Station
Clear Clear  
Wind Chill: 34°   Ceiling: Unl
Heat Index: 38°   Visibility: 10mi
Dew Point: 36°   Wind: 6mph
Humidity: 91%   Direction: 210°SSW
Pressure: 30.13"   Gusts: NA
Location:  37.59°N, 76.51°W
Report Text: KW75 201115Z AUTO 21005KT 10SM CLR 04/02 A3013 RMK AO1 T00350022
Loading
Personal Weather Stations






























Interactive Weather Map
Tropical Storm Tracking
New forecast layout! Learn more

10-Day Weather Forecast

Advertisements
Track Severe Weather on mobile